createdAt,value
2019-02-18T00:00:00.365Z,0.00
2019-02-18T00:01:00.290Z,0.00
2019-02-18T00:02:00.230Z,0.00
2019-02-18T00:03:00.176Z,0.00
2019-02-18T00:04:00.112Z,0.00
2019-02-18T00:05:00.058Z,0.00
2019-02-18T00:05:59.996Z,0.00
2019-02-18T00:06:59.931Z,0.00
2019-02-18T00:07:59.872Z,0.00
2019-02-18T00:08:59.807Z,0.00
2019-02-18T00:09:59.749Z,0.00
2019-02-18T00:10:59.687Z,0.00
2019-02-18T00:11:59.639Z,0.00
2019-02-18T00:12:59.569Z,0.00
2019-02-18T00:13:59.507Z,0.00
2019-02-18T00:14:59.474Z,0.00
2019-02-18T00:15:59.387Z,0.00
2019-02-18T00:16:59.402Z,0.00
2019-02-18T00:17:59.267Z,0.00
2019-02-18T00:18:59.208Z,0.00
2019-02-18T00:19:59.147Z,0.00
2019-02-18T00:20:59.086Z,0.00
2019-02-18T00:21:59.026Z,0.00
2019-02-18T00:22:58.966Z,0.00
2019-02-18T00:23:58.910Z,0.00
2019-02-18T00:24:58.846Z,0.00
2019-02-18T00:25:58.785Z,0.00
2019-02-18T00:26:58.726Z,0.00
2019-02-18T00:27:58.666Z,0.00
2019-02-18T00:28:58.608Z,0.00
2019-02-18T00:29:58.545Z,0.00
2019-02-18T00:30:58.490Z,0.00
2019-02-18T00:31:58.424Z,0.00
2019-02-18T00:32:58.364Z,0.00
2019-02-18T00:33:58.304Z,0.00
2019-02-18T00:34:58.258Z,0.00
2019-02-18T00:35:58.184Z,0.00
2019-02-18T00:36:58.122Z,0.00
2019-02-18T00:37:58.063Z,0.00
2019-02-18T00:38:58.003Z,0.00
2019-02-18T00:39:57.942Z,0.00
2019-02-18T00:40:57.895Z,0.00
2019-02-18T00:41:57.825Z,0.00
2019-02-18T00:42:57.763Z,0.00
2019-02-18T00:43:57.708Z,0.00
2019-02-18T00:44:57.643Z,0.00
2019-02-18T00:45:57.581Z,0.00
2019-02-18T00:46:57.521Z,0.00
2019-02-18T00:47:57.460Z,0.00
2019-02-18T00:48:57.399Z,0.00
2019-02-18T00:49:57.338Z,0.00
2019-02-18T00:50:57.279Z,0.00
2019-02-18T00:51:57.227Z,0.00
2019-02-18T00:52:57.159Z,0.00
2019-02-18T00:53:57.099Z,0.00
2019-02-18T00:54:57.039Z,0.00
2019-02-18T00:55:56.983Z,0.00
2019-02-18T00:56:56.917Z,0.00
2019-02-18T00:57:56.856Z,0.00
2019-02-18T00:58:56.799Z,0.00
2019-02-18T00:59:56.739Z,0.00
2019-02-18T01:00:56.675Z,0.00
2019-02-18T01:01:56.627Z,0.00
2019-02-18T01:02:56.556Z,0.00
2019-02-18T01:03:56.497Z,0.00
2019-02-18T01:04:56.435Z,0.00
2019-02-18T01:05:56.375Z,0.00
2019-02-18T01:06:56.317Z,0.00
2019-02-18T01:07:56.259Z,0.00
2019-02-18T01:08:56.193Z,0.00
2019-02-18T01:09:56.133Z,0.00
2019-02-18T01:10:56.074Z,0.00
2019-02-18T01:11:56.020Z,0.00
2019-02-18T01:12:55.954Z,0.00
2019-02-18T01:13:55.894Z,0.00
2019-02-18T01:14:55.835Z,0.00
2019-02-18T01:15:55.775Z,0.00
2019-02-18T01:16:55.711Z,0.00
2019-02-18T01:17:55.651Z,0.00
2019-02-18T01:18:55.594Z,0.00
2019-02-18T01:19:55.530Z,0.00
2019-02-18T01:20:55.471Z,0.00
2019-02-18T01:21:55.409Z,0.00
2019-02-18T01:22:55.351Z,0.00
2019-02-18T01:23:55.291Z,0.00
2019-02-18T01:24:55.227Z,0.00
2019-02-18T01:25:55.169Z,0.00
2019-02-18T01:26:55.110Z,0.00
2019-02-18T01:27:55.050Z,0.00
2019-02-18T01:28:54.993Z,0.00
2019-02-18T01:29:54.926Z,0.00
2019-02-18T01:30:54.868Z,0.00
2019-02-18T01:31:54.805Z,0.00
2019-02-18T01:32:54.745Z,0.00
2019-02-18T01:33:54.683Z,0.00
2019-02-18T01:34:54.623Z,0.00
2019-02-18T01:35:54.567Z,0.00
2019-02-18T01:36:54.502Z,0.00
2019-02-18T01:37:54.443Z,0.00
2019-02-18T01:38:54.382Z,0.00
2019-02-18T01:39:54.321Z,0.00
2019-02-18T01:40:54.269Z,0.00
2019-02-18T01:41:54.201Z,0.00
2019-02-18T01:42:54.140Z,0.00
2019-02-18T01:43:54.080Z,0.00
2019-02-18T01:44:54.021Z,0.00
2019-02-18T01:45:53.959Z,0.00
2019-02-18T01:46:53.898Z,0.00
2019-02-18T01:47:53.838Z,0.00
2019-02-18T01:48:53.778Z,0.00
2019-02-18T01:49:53.717Z,0.00
2019-02-18T01:50:53.657Z,0.00
2019-02-18T01:51:53.601Z,0.00
2019-02-18T01:52:53.535Z,0.00
2019-02-18T01:53:53.474Z,0.00
2019-02-18T01:54:53.415Z,0.00
2019-02-18T01:55:53.354Z,0.00
2019-02-18T01:56:53.292Z,0.00
2019-02-18T01:57:53.234Z,0.00
2019-02-18T01:58:53.172Z,0.00
2019-02-18T01:59:53.111Z,0.00
2019-02-18T02:00:53.051Z,0.00
2019-02-18T02:01:52.990Z,0.00
2019-02-18T02:02:52.931Z,0.00
2019-02-18T02:03:52.872Z,0.00
2019-02-18T02:04:52.808Z,0.00
2019-02-18T02:05:52.748Z,0.00
2019-02-18T02:06:52.689Z,0.00
2019-02-18T02:07:56.336Z,0.00
2019-02-18T02:08:52.569Z,0.00
2019-02-18T02:09:52.506Z,0.00
2019-02-18T02:10:52.452Z,0.00
2019-02-18T02:11:52.393Z,0.00
2019-02-18T02:12:52.325Z,0.00
2019-02-18T02:13:52.267Z,0.00
2019-02-18T02:14:52.206Z,0.00
2019-02-18T02:15:52.144Z,0.00
2019-02-18T02:16:52.083Z,0.00
2019-02-18T02:17:52.025Z,0.00
2019-02-18T02:18:51.964Z,0.00
2019-02-18T02:19:51.901Z,0.00
2019-02-18T02:20:51.846Z,0.00
2019-02-18T02:21:51.780Z,0.00
2019-02-18T02:22:51.718Z,0.00
2019-02-18T02:23:51.660Z,0.00
2019-02-18T02:24:51.599Z,0.00
2019-02-18T02:25:51.538Z,0.00
2019-02-18T02:26:51.477Z,0.00
2019-02-18T02:27:51.419Z,0.00
2019-02-18T02:28:51.357Z,0.00
2019-02-18T02:29:51.295Z,0.00
2019-02-18T02:30:51.235Z,0.00
2019-02-18T02:31:51.174Z,0.00
2019-02-18T02:32:51.176Z,0.00
2019-02-18T02:33:51.054Z,0.00
2019-02-18T02:34:50.991Z,0.00
2019-02-18T02:35:50.932Z,0.00
2019-02-18T02:36:50.870Z,0.00
2019-02-18T02:37:50.812Z,0.00
2019-02-18T02:38:50.750Z,0.00
2019-02-18T02:39:50.689Z,0.00
2019-02-18T02:40:50.628Z,0.00
2019-02-18T02:41:50.570Z,0.00
2019-02-18T02:42:50.506Z,0.00
2019-02-18T02:43:50.447Z,0.00
2019-02-18T02:44:50.384Z,0.00
2019-02-18T02:45:50.324Z,0.00
2019-02-18T02:46:50.265Z,0.00
2019-02-18T02:47:50.204Z,0.00
2019-02-18T02:48:50.141Z,0.00
2019-02-18T02:49:50.083Z,0.00
2019-02-18T02:50:50.023Z,0.00
2019-02-18T02:51:49.967Z,0.00
2019-02-18T02:52:49.899Z,0.00
2019-02-18T02:53:49.843Z,0.00
2019-02-18T02:54:49.778Z,0.00
2019-02-18T02:55:49.717Z,0.00
2019-02-18T02:56:49.660Z,0.00
2019-02-18T02:57:49.595Z,0.00
2019-02-18T02:58:49.536Z,0.00
2019-02-18T02:59:49.477Z,0.00
2019-02-18T03:00:49.414Z,0.00
2019-02-18T03:01:49.356Z,0.00
2019-02-18T03:02:49.292Z,0.00
2019-02-18T03:03:49.232Z,0.00
2019-02-18T03:04:49.177Z,0.00
2019-02-18T03:05:49.112Z,0.00
2019-02-18T03:06:49.051Z,0.00
2019-02-18T03:07:48.994Z,0.00
2019-02-18T03:08:48.927Z,0.00
2019-02-18T03:09:48.868Z,0.00
2019-02-18T03:10:48.807Z,0.00
2019-02-18T03:11:48.745Z,0.00
2019-02-18T03:12:48.684Z,0.00
2019-02-18T03:13:48.624Z,0.00
2019-02-18T03:14:48.563Z,0.00
2019-02-18T03:15:48.614Z,0.00
2019-02-18T03:16:48.447Z,0.00
2019-02-18T03:17:48.381Z,0.00
2019-02-18T03:18:48.325Z,0.00
2019-02-18T03:19:48.267Z,0.00
2019-02-18T03:20:48.199Z,0.00
2019-02-18T03:21:48.138Z,0.00
2019-02-18T03:22:48.077Z,0.00
2019-02-18T03:23:48.019Z,0.00
2019-02-18T03:24:47.957Z,0.00
2019-02-18T03:25:47.894Z,0.00
2019-02-18T03:26:47.839Z,0.00
2019-02-18T03:27:47.775Z,0.00
2019-02-18T03:28:47.711Z,0.00
2019-02-18T03:29:47.652Z,0.00
2019-02-18T03:30:47.599Z,0.00
2019-02-18T03:31:47.531Z,0.00
2019-02-18T03:32:47.470Z,0.00
2019-02-18T03:33:47.409Z,0.00
2019-02-18T03:34:47.354Z,0.00
2019-02-18T03:35:47.286Z,0.00
2019-02-18T03:36:47.225Z,0.00
2019-02-18T03:37:47.170Z,0.00
2019-02-18T03:38:47.108Z,0.00
2019-02-18T03:39:47.044Z,0.00
2019-02-18T03:40:46.981Z,0.00
2019-02-18T03:41:46.921Z,0.00
2019-02-18T03:42:46.860Z,0.00
2019-02-18T03:43:46.798Z,0.00
2019-02-18T03:44:46.739Z,0.00
2019-02-18T03:45:46.677Z,0.00
2019-02-18T03:46:46.617Z,0.00
2019-02-18T03:47:46.555Z,0.00
2019-02-18T03:48:46.494Z,0.00
2019-02-18T03:49:46.438Z,0.00
2019-02-18T03:50:46.374Z,0.00
2019-02-18T03:51:46.313Z,0.00
2019-02-18T03:52:46.250Z,0.00
2019-02-18T03:53:46.190Z,0.00
2019-02-18T03:54:46.128Z,0.00
2019-02-18T03:55:46.070Z,0.00
2019-02-18T03:56:46.008Z,0.00
2019-02-18T03:57:45.953Z,0.00
2019-02-18T03:58:45.887Z,0.00
2019-02-18T03:59:45.831Z,0.00
2019-02-18T04:00:45.763Z,0.00
2019-02-18T04:01:45.703Z,0.00
2019-02-18T04:02:45.646Z,0.00
2019-02-18T04:03:45.582Z,0.00
2019-02-18T04:04:45.520Z,0.00
2019-02-18T04:05:45.461Z,0.00
2019-02-18T04:06:45.399Z,0.00
2019-02-18T04:07:45.342Z,0.00
2019-02-18T04:08:45.278Z,0.00
2019-02-18T04:09:45.219Z,0.00
2019-02-18T04:10:45.157Z,0.00
2019-02-18T04:11:45.093Z,0.00
2019-02-18T04:12:45.036Z,0.00
2019-02-18T04:13:44.975Z,0.00
2019-02-18T04:14:44.911Z,0.00
2019-02-18T04:15:44.850Z,0.00
2019-02-18T04:16:44.794Z,0.00
2019-02-18T04:17:44.726Z,0.00
2019-02-18T04:18:44.666Z,0.00
2019-02-18T04:19:44.605Z,0.00
2019-02-18T04:20:44.544Z,0.00
2019-02-18T04:21:44.484Z,0.00
2019-02-18T04:22:44.426Z,0.00
2019-02-18T04:23:44.363Z,0.00
2019-02-18T04:24:44.320Z,0.00
2019-02-18T04:25:44.238Z,0.00
2019-02-18T04:26:44.178Z,0.00
2019-02-18T04:27:44.193Z,0.00
2019-02-18T04:28:44.057Z,0.00
2019-02-18T04:29:44.006Z,0.00
2019-02-18T04:30:43.937Z,0.00
2019-02-18T04:31:43.886Z,0.00
2019-02-18T04:32:43.815Z,0.00
2019-02-18T04:33:43.758Z,0.00
2019-02-18T04:34:43.690Z,0.00
2019-02-18T04:35:43.630Z,0.00
2019-02-18T04:36:43.567Z,0.00
2019-02-18T04:37:43.520Z,0.00
2019-02-18T04:38:53.631Z,0.00
2019-02-18T04:39:43.384Z,0.00
2019-02-18T04:40:43.330Z,0.00
2019-02-18T04:41:43.264Z,0.00
2019-02-18T04:42:43.204Z,0.00
2019-02-18T04:43:43.144Z,0.00
2019-02-18T04:44:43.080Z,0.00
2019-02-18T04:45:43.032Z,0.00
2019-02-18T04:46:42.957Z,0.00
2019-02-18T04:47:42.896Z,0.00
2019-02-18T04:48:42.835Z,0.00
2019-02-18T04:49:42.773Z,0.00
2019-02-18T04:50:42.720Z,0.00
2019-02-18T04:51:42.652Z,0.00
2019-02-18T04:52:42.591Z,0.00
2019-02-18T04:53:42.528Z,0.00
2019-02-18T04:54:42.472Z,0.00
2019-02-18T04:55:42.407Z,0.00
2019-02-18T04:56:42.345Z,0.00
2019-02-18T04:57:42.291Z,0.00
2019-02-18T04:58:42.223Z,0.00
2019-02-18T04:59:42.163Z,0.00
2019-02-18T05:00:42.104Z,0.00
2019-02-18T05:01:42.040Z,0.00
2019-02-18T05:02:41.978Z,0.00
2019-02-18T05:03:41.917Z,0.00
2019-02-18T05:04:41.856Z,0.00
2019-02-18T05:05:41.794Z,0.00
2019-02-18T05:06:41.734Z,0.00
2019-02-18T05:07:41.677Z,0.00
2019-02-18T05:08:41.610Z,0.00
2019-02-18T05:09:41.552Z,0.00
2019-02-18T05:10:41.495Z,0.00
2019-02-18T05:11:41.432Z,0.00
2019-02-18T05:12:41.390Z,0.00
2019-02-18T05:13:41.306Z,0.00
2019-02-18T05:14:41.247Z,0.00
2019-02-18T05:15:41.184Z,0.00
2019-02-18T05:16:41.122Z,0.00
2019-02-18T05:17:41.061Z,0.00
2019-02-18T05:18:41.000Z,0.00
2019-02-18T05:19:40.941Z,0.00
2019-02-18T05:20:40.877Z,0.00
2019-02-18T05:21:40.915Z,0.00
2019-02-18T05:22:40.756Z,0.00
2019-02-18T05:23:40.695Z,0.00
2019-02-18T05:24:40.632Z,0.00
2019-02-18T05:25:40.571Z,0.00
2019-02-18T05:26:40.510Z,0.00
2019-02-18T05:27:40.451Z,0.00
2019-02-18T05:28:40.436Z,0.00
2019-02-18T05:29:40.325Z,0.00
2019-02-18T05:30:40.265Z,0.00
2019-02-18T05:31:40.213Z,0.00
2019-02-18T05:32:40.142Z,0.00
2019-02-18T05:33:40.086Z,0.00
2019-02-18T05:34:40.043Z,0.00
2019-02-18T05:35:39.959Z,0.00
2019-02-18T05:36:39.899Z,0.00
2019-02-18T05:37:39.846Z,0.00
2019-02-18T05:38:39.776Z,0.00
2019-02-18T05:39:39.717Z,0.00
2019-02-18T05:40:39.658Z,0.00
2019-02-18T05:41:39.591Z,0.00
2019-02-18T05:42:39.530Z,0.00
2019-02-18T05:43:39.471Z,0.00
2019-02-18T05:44:39.409Z,0.00
2019-02-18T05:45:39.348Z,0.00
2019-02-18T05:46:39.287Z,0.00
2019-02-18T05:47:39.227Z,0.00
2019-02-18T05:48:39.182Z,0.00
2019-02-18T05:49:39.101Z,0.00
2019-02-18T05:50:39.040Z,0.00
2019-02-18T05:51:38.984Z,0.00
2019-02-18T05:52:38.919Z,0.00
2019-02-18T05:53:38.857Z,0.00
2019-02-18T05:54:38.795Z,0.00
2019-02-18T05:55:38.737Z,0.00
2019-02-18T05:56:38.671Z,0.00
2019-02-18T05:57:38.611Z,0.00
2019-02-18T05:58:38.551Z,0.00
2019-02-18T05:59:38.490Z,0.00
2019-02-18T06:00:38.426Z,0.00
2019-02-18T06:01:38.366Z,0.00
2019-02-18T06:02:38.304Z,0.00
2019-02-18T06:03:38.244Z,0.00
2019-02-18T06:04:38.198Z,0.00
2019-02-18T06:05:38.121Z,0.00
2019-02-18T06:06:38.060Z,0.00
2019-02-18T06:07:38.000Z,0.00
2019-02-18T06:08:37.936Z,0.00
2019-02-18T06:09:37.875Z,0.00
2019-02-18T06:10:37.815Z,0.00
2019-02-18T06:11:37.824Z,0.00
2019-02-18T06:12:37.689Z,0.00
2019-02-18T06:13:37.629Z,0.00
2019-02-18T06:14:37.577Z,0.00
2019-02-18T06:15:37.508Z,0.00
2019-02-18T06:16:37.450Z,0.00
2019-02-18T06:17:37.387Z,0.00
2019-02-18T06:18:37.323Z,0.00
2019-02-18T06:19:37.261Z,0.00
2019-02-18T06:20:37.203Z,0.00
2019-02-18T06:21:37.138Z,0.00
2019-02-18T06:22:38.688Z,0.00
2019-02-18T06:23:37.017Z,0.00
2019-02-18T06:24:36.953Z,0.00
2019-02-18T06:25:36.895Z,0.00
2019-02-18T06:26:36.833Z,0.00
2019-02-18T06:27:36.771Z,0.00
2019-02-18T06:28:36.708Z,0.00
2019-02-18T06:29:36.646Z,0.00
2019-02-18T06:30:36.591Z,0.00
2019-02-18T06:31:36.523Z,0.00
2019-02-18T06:32:36.462Z,0.00
2019-02-18T06:33:36.405Z,0.00
2019-02-18T06:34:36.340Z,0.00
2019-02-18T06:35:36.337Z,0.00
2019-02-18T06:36:36.218Z,0.00
2019-02-18T06:37:36.156Z,0.00
2019-02-18T06:38:36.104Z,0.00
2019-02-18T06:39:41.356Z,0.00
2019-02-18T06:40:35.971Z,0.00
2019-02-18T06:41:35.910Z,0.00
2019-02-18T06:42:35.900Z,0.00
2019-02-18T06:43:35.787Z,0.00
2019-02-18T06:44:35.726Z,0.00
2019-02-18T06:45:35.663Z,0.00
2019-02-18T06:46:35.609Z,0.00
2019-02-18T06:47:35.542Z,0.00
2019-02-18T06:48:35.480Z,0.00
2019-02-18T06:49:35.420Z,0.00
2019-02-18T06:50:35.356Z,0.00
2019-02-18T06:51:35.296Z,0.00
2019-02-18T06:52:35.238Z,0.00
2019-02-18T06:53:35.181Z,0.00
2019-02-18T06:54:35.112Z,0.00
2019-02-18T06:55:35.049Z,0.00
2019-02-18T06:56:34.988Z,0.00
2019-02-18T06:57:34.928Z,0.00
2019-02-18T06:58:34.869Z,0.00
2019-02-18T06:59:34.806Z,0.00
2019-02-18T07:00:34.744Z,0.00
2019-02-18T07:01:34.679Z,0.00
2019-02-18T07:02:34.620Z,0.00
2019-02-18T07:03:34.561Z,0.00
2019-02-18T07:04:34.495Z,4.00
2019-02-18T07:05:34.434Z,4.00
2019-02-18T07:06:34.379Z,4.00
2019-02-18T07:07:34.311Z,4.00
2019-02-18T07:08:34.253Z,4.00
2019-02-18T07:09:34.188Z,4.00
2019-02-18T07:10:34.128Z,0.00
2019-02-18T07:11:34.065Z,0.00
2019-02-18T07:12:34.005Z,0.00
2019-02-18T07:13:33.948Z,4.00
2019-02-18T07:14:33.880Z,4.00
2019-02-18T07:15:33.817Z,4.00
2019-02-18T07:16:33.757Z,0.00
2019-02-18T07:17:33.695Z,4.00
2019-02-18T07:18:33.634Z,4.00
2019-02-18T07:19:33.573Z,4.00
2019-02-18T07:20:33.518Z,4.00
2019-02-18T07:21:33.453Z,4.00
2019-02-18T07:22:33.389Z,4.00
2019-02-18T07:23:33.330Z,8.00
2019-02-18T07:24:33.264Z,4.00
2019-02-18T07:25:33.206Z,8.00
2019-02-18T07:26:33.148Z,8.00
2019-02-18T07:27:33.082Z,4.00
2019-02-18T07:28:33.021Z,8.00
2019-02-18T07:29:34.198Z,8.00
2019-02-18T07:30:32.895Z,8.00
2019-02-18T07:31:32.833Z,4.00
2019-02-18T07:32:32.774Z,8.00
2019-02-18T07:33:32.715Z,8.00
2019-02-18T07:34:32.650Z,8.00
2019-02-18T07:35:32.592Z,8.00
2019-02-18T07:36:34.891Z,12.00
2019-02-18T07:37:32.464Z,8.00
2019-02-18T07:38:32.403Z,8.00
2019-02-18T07:39:32.346Z,8.00
2019-02-18T07:40:32.278Z,8.00
2019-02-18T07:41:32.219Z,8.00
2019-02-18T07:42:32.158Z,8.00
2019-02-18T07:43:32.097Z,12.00
2019-02-18T07:44:32.032Z,12.00
2019-02-18T07:45:31.972Z,12.00
2019-02-18T07:46:31.912Z,12.00
2019-02-18T07:47:31.848Z,12.00
2019-02-18T07:48:31.787Z,12.00
2019-02-18T07:49:31.725Z,12.00
2019-02-18T07:50:31.665Z,8.00
2019-02-18T07:51:31.602Z,8.00
2019-02-18T07:52:31.540Z,8.00
2019-02-18T07:53:31.478Z,12.00
2019-02-18T07:54:31.421Z,12.00
2019-02-18T07:55:31.357Z,12.00
2019-02-18T07:56:31.294Z,12.00
2019-02-18T07:57:31.234Z,12.00
2019-02-18T07:58:31.172Z,12.00
2019-02-18T07:59:31.108Z,12.00
2019-02-18T08:00:31.050Z,12.00
2019-02-18T08:01:30.985Z,8.00
2019-02-18T08:02:30.926Z,8.00
2019-02-18T08:03:30.865Z,12.00
2019-02-18T08:04:30.801Z,12.00
2019-02-18T08:05:30.738Z,12.00
2019-02-18T08:06:30.677Z,12.00
2019-02-18T08:07:30.616Z,12.00
2019-02-18T08:08:30.558Z,12.00
2019-02-18T08:09:30.496Z,12.00
2019-02-18T08:10:30.479Z,12.00
2019-02-18T08:11:30.369Z,12.00
2019-02-18T08:12:30.306Z,12.00
2019-02-18T08:13:30.246Z,16.00
2019-02-18T08:14:30.189Z,16.00
2019-02-18T08:15:30.127Z,16.00
2019-02-18T08:16:30.064Z,16.00
2019-02-18T08:17:30.006Z,12.00
2019-02-18T08:18:29.946Z,12.00
2019-02-18T08:19:29.882Z,12.00
2019-02-18T08:20:29.815Z,12.00
2019-02-18T08:21:29.761Z,12.00
2019-02-18T08:22:29.698Z,12.00
2019-02-18T08:23:29.634Z,12.00
2019-02-18T08:24:29.571Z,16.00
2019-02-18T08:25:29.511Z,16.00
2019-02-18T08:26:29.451Z,16.00
2019-02-18T08:27:29.399Z,16.00
2019-02-18T08:28:29.325Z,16.00
2019-02-18T08:29:29.265Z,16.00
2019-02-18T08:30:29.203Z,16.00
2019-02-18T08:31:29.141Z,16.00
2019-02-18T08:32:29.086Z,16.00
2019-02-18T08:33:29.019Z,16.00
2019-02-18T08:34:28.963Z,16.00
2019-02-18T08:35:28.899Z,16.00
2019-02-18T08:36:28.831Z,16.00
2019-02-18T08:37:30.339Z,12.00
2019-02-18T08:38:28.709Z,12.00
2019-02-18T08:39:28.647Z,12.00
2019-02-18T08:40:28.585Z,12.00
2019-02-18T08:41:28.527Z,12.00
2019-02-18T08:42:28.463Z,16.00
2019-02-18T08:43:28.407Z,16.00
2019-02-18T08:44:28.339Z,16.00
2019-02-18T08:45:28.272Z,16.00
2019-02-18T08:46:28.218Z,16.00
2019-02-18T08:47:28.149Z,16.00
2019-02-18T08:48:28.087Z,16.00
2019-02-18T08:49:28.029Z,16.00
2019-02-18T08:50:27.963Z,16.00
2019-02-18T08:51:27.902Z,16.00
2019-02-18T08:52:27.842Z,16.00
2019-02-18T08:53:27.780Z,16.00
2019-02-18T08:54:27.717Z,16.00
2019-02-18T08:55:27.657Z,16.00
2019-02-18T08:56:27.596Z,20.00
2019-02-18T08:57:27.533Z,16.00
2019-02-18T08:58:27.470Z,16.00
2019-02-18T08:59:27.409Z,16.00
2019-02-18T09:00:27.352Z,16.00
2019-02-18T09:01:27.286Z,16.00
2019-02-18T09:02:27.225Z,16.00
2019-02-18T09:03:27.164Z,16.00
2019-02-18T09:04:28.125Z,16.00
2019-02-18T09:05:27.039Z,16.00
2019-02-18T09:06:26.978Z,16.00
2019-02-18T09:07:26.934Z,16.00
2019-02-18T09:08:26.857Z,20.00
2019-02-18T09:09:26.793Z,20.00
2019-02-18T09:10:33.636Z,20.00
2019-02-18T09:11:26.670Z,16.00
2019-02-18T09:12:26.612Z,16.00
2019-02-18T09:13:26.546Z,16.00
2019-02-18T09:14:26.485Z,20.00
2019-02-18T09:15:26.424Z,20.00
2019-02-18T09:16:26.363Z,20.00
2019-02-18T09:17:26.299Z,20.00
2019-02-18T09:18:41.015Z,20.00
2019-02-18T09:19:26.177Z,20.00
2019-02-18T09:20:26.116Z,20.00
2019-02-18T09:21:26.053Z,20.00
2019-02-18T09:22:25.992Z,16.00
2019-02-18T09:23:25.933Z,16.00
2019-02-18T09:24:25.871Z,20.00
2019-02-18T09:25:25.810Z,20.00
2019-02-18T09:26:25.749Z,20.00
2019-02-18T09:27:25.687Z,20.00
2019-02-18T09:28:25.621Z,20.00
2019-02-18T09:29:25.566Z,20.00
2019-02-18T09:30:25.508Z,20.00
2019-02-18T09:31:25.444Z,20.00
2019-02-18T09:32:25.381Z,24.00
2019-02-18T09:33:25.314Z,20.00
2019-02-18T09:34:25.253Z,20.00
2019-02-18T09:35:25.191Z,24.00
2019-02-18T09:36:25.129Z,20.00
2019-02-18T09:37:25.069Z,24.00
2019-02-18T09:38:25.661Z,24.00
2019-02-18T09:39:31.118Z,20.00
2019-02-18T09:40:24.885Z,20.00
2019-02-18T09:41:24.825Z,20.00
2019-02-18T09:42:26.507Z,20.00
2019-02-18T09:43:24.699Z,20.00
2019-02-18T09:44:24.636Z,24.00
2019-02-18T09:45:24.577Z,24.00
2019-02-18T09:46:24.515Z,24.00
2019-02-18T09:47:24.454Z,20.00
2019-02-18T09:48:24.394Z,20.00
2019-02-18T09:49:24.331Z,24.00
2019-02-18T09:50:24.268Z,24.00
2019-02-18T09:51:24.209Z,24.00
2019-02-18T09:52:24.144Z,24.00
2019-02-18T09:53:24.082Z,24.00
2019-02-18T09:54:24.030Z,28.00
2019-02-18T09:55:23.961Z,24.00
2019-02-18T09:56:23.898Z,24.00
2019-02-18T09:57:23.845Z,28.00
2019-02-18T09:58:23.778Z,28.00
2019-02-18T09:59:23.714Z,24.00
2019-02-18T10:00:23.658Z,28.00
2019-02-18T10:01:23.593Z,28.00
2019-02-18T10:02:23.529Z,28.00
2019-02-18T10:03:31.703Z,28.00
2019-02-18T10:04:23.412Z,28.00
2019-02-18T10:05:23.344Z,28.00
2019-02-18T10:06:23.283Z,28.00
2019-02-18T10:07:23.222Z,28.00
2019-02-18T10:08:23.159Z,32.00
2019-02-18T10:09:23.099Z,28.00
2019-02-18T10:10:23.038Z,28.00
2019-02-18T10:11:22.976Z,28.00
2019-02-18T10:12:22.913Z,28.00
2019-02-18T10:13:22.852Z,28.00
2019-02-18T10:14:22.791Z,28.00
2019-02-18T10:15:22.729Z,32.00
2019-02-18T10:16:22.667Z,32.00
2019-02-18T10:17:22.606Z,32.00
2019-02-18T10:18:22.549Z,32.00
2019-02-18T10:19:22.484Z,36.00
2019-02-18T10:20:22.422Z,36.00
2019-02-18T10:21:22.363Z,36.00
2019-02-18T10:22:22.299Z,36.00
2019-02-18T10:23:22.238Z,36.00
2019-02-18T10:24:22.260Z,40.00
2019-02-18T10:25:22.115Z,40.00
2019-02-18T10:26:22.064Z,36.00
2019-02-18T10:27:21.993Z,40.00
2019-02-18T10:28:21.930Z,40.00
2019-02-18T10:29:21.868Z,44.00
2019-02-18T10:30:21.813Z,40.00
2019-02-18T10:31:21.748Z,44.00
2019-02-18T10:32:21.683Z,44.00
2019-02-18T10:33:21.630Z,44.00
2019-02-18T10:34:21.562Z,44.00
2019-02-18T10:35:21.500Z,44.00
2019-02-18T10:36:21.440Z,48.00
2019-02-18T10:37:21.376Z,48.00
2019-02-18T10:38:21.324Z,48.00
2019-02-18T10:39:21.256Z,48.00
2019-02-18T10:40:21.193Z,48.00
2019-02-18T10:41:21.131Z,48.00
2019-02-18T10:42:21.070Z,52.00
2019-02-18T10:43:30.155Z,48.00
2019-02-18T10:44:20.947Z,52.00
2019-02-18T10:45:20.888Z,52.00
2019-02-18T10:46:20.826Z,52.00
2019-02-18T10:47:20.762Z,52.00
2019-02-18T10:48:20.709Z,48.00
2019-02-18T10:49:21.580Z,48.00
2019-02-18T10:50:20.586Z,48.00
2019-02-18T10:51:20.523Z,48.00
2019-02-18T10:52:22.558Z,52.00
2019-02-18T10:53:20.394Z,52.00
2019-02-18T10:54:20.333Z,48.00
2019-02-18T10:55:20.271Z,52.00
2019-02-18T10:56:20.211Z,48.00
2019-02-18T10:57:20.148Z,48.00
2019-02-18T10:58:20.088Z,48.00
2019-02-18T10:59:20.027Z,48.00
2019-02-18T11:00:19.965Z,48.00
2019-02-18T11:01:19.903Z,48.00
2019-02-18T11:02:19.842Z,44.00
2019-02-18T11:03:19.801Z,44.00
2019-02-18T11:04:19.719Z,44.00
2019-02-18T11:05:19.657Z,44.00
2019-02-18T11:06:19.596Z,40.00
2019-02-18T11:07:19.536Z,44.00
2019-02-18T11:08:19.478Z,40.00
2019-02-18T11:09:19.418Z,44.00
2019-02-18T11:10:19.353Z,40.00
2019-02-18T11:11:19.292Z,40.00
2019-02-18T11:12:19.229Z,40.00
2019-02-18T11:13:19.169Z,40.00
2019-02-18T11:14:19.110Z,40.00
2019-02-18T11:15:19.045Z,40.00
2019-02-18T11:16:18.983Z,40.00
2019-02-18T11:17:18.922Z,40.00
2019-02-18T11:18:18.861Z,44.00
2019-02-18T11:19:18.800Z,40.00
2019-02-18T11:20:18.738Z,36.00
2019-02-18T11:21:18.678Z,40.00
2019-02-18T11:22:18.619Z,36.00
2019-02-18T11:23:18.556Z,36.00
2019-02-18T11:24:20.657Z,36.00
2019-02-18T11:25:18.432Z,36.00
2019-02-18T11:26:18.371Z,36.00
2019-02-18T11:27:18.309Z,36.00
2019-02-18T11:28:18.247Z,36.00
2019-02-18T11:29:18.187Z,36.00
2019-02-18T11:30:18.127Z,40.00
2019-02-18T11:31:18.067Z,40.00
2019-02-18T11:32:18.003Z,36.00
2019-02-18T11:33:17.942Z,36.00
2019-02-18T11:34:17.882Z,40.00
2019-02-18T11:35:17.825Z,40.00
2019-02-18T11:36:17.759Z,40.00
2019-02-18T11:37:17.699Z,40.00
2019-02-18T11:38:17.637Z,40.00
2019-02-18T11:39:17.575Z,40.00
2019-02-18T11:40:17.513Z,40.00
2019-02-18T11:41:26.819Z,40.00
2019-02-18T11:42:17.393Z,40.00
2019-02-18T11:43:17.331Z,40.00
2019-02-18T11:44:17.269Z,40.00
2019-02-18T11:45:17.207Z,36.00
2019-02-18T11:46:17.147Z,36.00
2019-02-18T11:47:17.086Z,36.00
2019-02-18T11:48:17.026Z,40.00
2019-02-18T11:49:16.963Z,40.00
2019-02-18T11:50:16.903Z,36.00
2019-02-18T11:51:16.848Z,36.00
2019-02-18T11:52:16.784Z,36.00
2019-02-18T11:53:16.718Z,40.00
2019-02-18T11:54:16.657Z,36.00
2019-02-18T11:55:16.597Z,36.00
2019-02-18T11:56:16.536Z,36.00
2019-02-18T11:57:16.477Z,36.00
2019-02-18T11:58:16.414Z,32.00
2019-02-18T11:59:24.115Z,36.00
2019-02-18T12:00:16.296Z,36.00
2019-02-18T12:01:16.229Z,36.00
2019-02-18T12:02:16.171Z,32.00
2019-02-18T12:03:16.109Z,32.00
2019-02-18T12:04:16.046Z,32.00
2019-02-18T12:05:15.985Z,36.00
2019-02-18T12:06:15.924Z,36.00
2019-02-18T12:07:15.863Z,36.00
2019-02-18T12:08:15.806Z,36.00
2019-02-18T12:09:17.775Z,36.00
2019-02-18T12:10:15.679Z,32.00
2019-02-18T12:11:15.620Z,32.00
2019-02-18T12:12:15.561Z,32.00
2019-02-18T12:13:15.507Z,32.00
2019-02-18T12:14:15.435Z,32.00
2019-02-18T12:15:15.376Z,36.00
2019-02-18T12:16:15.314Z,36.00
2019-02-18T12:17:20.580Z,32.00
2019-02-18T12:18:15.191Z,32.00
2019-02-18T12:19:15.132Z,32.00
2019-02-18T12:20:15.069Z,32.00
2019-02-18T12:21:15.011Z,32.00
2019-02-18T12:22:14.950Z,32.00
2019-02-18T12:23:14.887Z,32.00
2019-02-18T12:24:14.826Z,32.00
2019-02-18T12:25:14.764Z,32.00
2019-02-18T12:26:14.703Z,32.00
2019-02-18T12:27:14.642Z,32.00
2019-02-18T12:28:15.555Z,32.00
2019-02-18T12:29:14.520Z,32.00
2019-02-18T12:30:14.527Z,32.00
2019-02-18T12:31:14.399Z,32.00
2019-02-18T12:32:14.338Z,32.00
2019-02-18T12:33:14.586Z,32.00
2019-02-18T12:34:14.216Z,32.00
2019-02-18T12:35:14.155Z,28.00
2019-02-18T12:36:14.093Z,28.00
2019-02-18T12:37:14.036Z,28.00
2019-02-18T12:38:13.972Z,32.00
2019-02-18T12:39:13.924Z,28.00
2019-02-18T12:40:13.849Z,28.00
2019-02-18T12:41:13.799Z,28.00
2019-02-18T12:42:13.729Z,28.00
2019-02-18T12:43:13.668Z,32.00
2019-02-18T12:44:13.607Z,32.00
2019-02-18T12:45:13.545Z,28.00
2019-02-18T12:46:15.769Z,28.00
2019-02-18T12:47:13.424Z,28.00
2019-02-18T12:48:13.361Z,28.00
2019-02-18T12:49:13.301Z,28.00
2019-02-18T12:50:13.241Z,28.00
2019-02-18T12:51:13.181Z,28.00
2019-02-18T12:52:13.120Z,28.00
2019-02-18T12:53:13.058Z,28.00
2019-02-18T12:54:12.996Z,28.00
2019-02-18T12:55:12.995Z,28.00
2019-02-18T12:56:12.875Z,28.00
2019-02-18T12:57:12.814Z,28.00
2019-02-18T12:58:12.753Z,28.00
2019-02-18T12:59:12.705Z,28.00
2019-02-18T13:00:12.699Z,32.00
2019-02-18T13:01:12.571Z,32.00
2019-02-18T13:02:12.511Z,32.00
2019-02-18T13:03:12.453Z,32.00
2019-02-18T13:04:12.388Z,28.00
2019-02-18T13:05:12.335Z,28.00
2019-02-18T13:06:12.275Z,28.00